Time,TemperatureF,DewpointF,PressureIn,WindDirection,WindDirectionDegrees,WindSpeedMPH,WindSpeedGustMPH,Humidity,HourlyPrecipIn,Conditions,Clouds,dailyrainin,SoftwareType,DateUTC
2013-01-12 00:00:00,45.9,36.9,29.98,SW,217,2.3,6.9,70,0.00,,,0.33,WUHU21623XXSP,2013-01-12 05:00:00,
2013-01-12 00:01:00,45.9,36.9,29.98,SW,217,2.3,6.9,70,0.00,,,0.33,WUHU21623XXSP,2013-01-12 05:01:00,
2013-01-12 00:03:00,46.0,37.0,29.98,SW,221,1.7,6.7,70,0.00,,,0.00,WUHU21623XXSP,2013-01-12 05:03:00,
2013-01-12 00:08:00,46.0,37.0,29.98,SW,214,4.3,7.6,70,0.00,,,0.00,WUHU21623XXSP,2013-01-12 05:08:00,
2013-01-12 00:13:00,46.0,37.0,29.98,SW,225,1.3,7.6,70,0.00,,,0.00,WUHU21623XXSP,2013-01-12 05:13:00,
2013-01-12 00:18:00,45.7,36.7,29.98,SSW,202,2.2,4.5,70,0.00,,,0.00,WUHU21623XXSP,2013-01-12 05:18:00,
2013-01-12 00:23:00,45.3,36.3,29.97,SSW,202,1.8,4.5,70,0.00,,,0.00,WUHU21623XXSP,2013-01-12 05:23:00,
2013-01-12 00:28:00,45.3,36.3,29.98,SSW,202,2.9,4.3,70,0.00,,,0.00,WUHU21623XXSP,2013-01-12 05:28:00,
2013-01-12 00:33:00,45.3,36.3,29.98,SW,229,3.0,5.4,70,0.00,,,0.00,WUHU21623XXSP,2013-01-12 05:33:00,
2013-01-12 00:38:00,45.5,36.5,29.97,SW,225,1.8,5.4,70,0.00,,,0.00,WUHU21623XXSP,2013-01-12 05:38:00,
2013-01-12 00:43:00,45.7,36.7,29.97,SSW,202,2.0,4.9,70,0.00,,,0.00,WUHU21623XXSP,2013-01-12 05:43:00,
2013-01-12 00:48:00,45.7,36.7,29.97,SSW,210,2.7,4.9,70,0.00,,,0.00,WUHU21623XXSP,2013-01-12 05:48:00,
2013-01-12 00:53:00,45.5,36.5,29.97,WSW,247,0.0,2.7,70,0.00,,,0.00,WUHU21623XXSP,2013-01-12 05:53:00,
2013-01-12 00:58:00,45.7,36.7,29.97,SW,225,0.0,3.8,70,0.00,,,0.00,WUHU21623XXSP,2013-01-12 05:58:00,
2013-01-12 01:03:00,45.7,36.7,29.98,SW,222,2.3,3.8,70,0.00,,,0.00,WUHU21623XXSP,2013-01-12 06:03:00,
2013-01-12 01:08:00,45.7,36.7,29.98,SW,234,2.0,4.9,70,0.00,,,0.00,WUHU21623XXSP,2013-01-12 06:08:00,
2013-01-12 01:13:00,46.0,37.0,29.98,SW,225,0.0,4.9,70,0.00,,,0.00,WUHU21623XXSP,2013-01-12 06:13:00,
2013-01-12 01:18:00,46.0,37.0,29.98,SW,233,1.9,3.8,70,0.00,,,0.00,WUHU21623XXSP,2013-01-12 06:18:00,
2013-01-12 01:23:00,46.0,37.0,29.98,SW,225,2.2,3.8,70,0.00,,,0.00,WUHU21623XXSP,2013-01-12 06:23:00,
2013-01-12 01:28:00,46.2,37.2,29.98,SW,225,1.9,3.8,70,0.00,,,0.00,WUHU21623XXSP,2013-01-12 06:28:00,
2013-01-12 01:33:00,46.6,37.9,29.98,SW,225,4.9,6.3,71,0.00,,,0.00,WUHU21623XXSP,2013-01-12 06:33:00,
2013-01-12 01:38:00,46.9,38.1,29.98,SW,215,1.4,6.3,71,0.00,,,0.00,WUHU21623XXSP,2013-01-12 06:38:00,
2013-01-12 01:43:00,46.9,38.1,29.98,SW,225,3.7,6.9,71,0.00,,,0.00,WUHU21623XXSP,2013-01-12 06:43:00,
2013-01-12 01:48:00,46.9,38.1,29.98,SW,224,3.7,6.9,71,0.00,,,0.00,WUHU21623XXSP,2013-01-12 06:48:00,
2013-01-12 01:53:00,47.1,38.3,29.98,SW,225,6.9,10.3,71,0.00,,,0.00,WUHU21623XXSP,2013-01-12 06:53:00,
2013-01-12 01:58:00,47.3,38.5,29.98,SW,217,4.1,10.3,71,0.00,,,0.00,WUHU21623XXSP,2013-01-12 06:58:00,
2013-01-12 02:03:00,47.5,38.7,29.98,WSW,241,2.9,6.3,71,0.00,,,0.00,WUHU21623XXSP,2013-01-12 07:03:00,
2013-01-12 02:08:00,47.3,38.5,29.98,SW,225,1.9,6.5,71,0.00,,,0.00,WUHU21623XXSP,2013-01-12 07:08:00,
2013-01-12 02:13:00,47.3,38.5,29.98,WSW,247,7.4,8.1,71,0.00,,,0.00,WUHU21623XXSP,2013-01-12 07:13:00,
2013-01-12 02:18:00,47.5,38.7,29.98,SW,231,4.9,9.4,71,0.00,,,0.00,WUHU21623XXSP,2013-01-12 07:18:00,
2013-01-12 02:23:00,47.8,39.0,29.98,SW,231,3.1,11.2,71,0.00,,,0.00,WUHU21623XXSP,2013-01-12 07:23:00,
2013-01-12 02:28:00,47.8,39.0,29.99,SW,233,3.5,11.2,71,0.00,,,0.00,WUHU21623XXSP,2013-01-12 07:28:00,
2013-01-12 02:33:00,47.7,38.9,29.99,SW,220,4.3,7.4,71,0.00,,,0.00,WUHU21623XXSP,2013-01-12 07:33:00,
2013-01-12 02:38:00,48.0,39.2,29.99,SW,230,4.7,12.3,71,0.00,,,0.00,WUHU21623XXSP,2013-01-12 07:38:00,
2013-01-12 02:43:00,48.0,39.2,29.99,SW,231,5.7,12.3,71,0.00,,,0.00,WUHU21623XXSP,2013-01-12 07:43:00,
2013-01-12 02:48:00,47.8,39.0,29.99,West,270,5.6,10.3,71,0.00,,,0.00,WUHU21623XXSP,2013-01-12 07:48:00,
2013-01-12 02:53:00,47.8,39.0,29.99,SW,225,4.9,8.9,71,0.00,,,0.00,WUHU21623XXSP,2013-01-12 07:53:00,
2013-01-12 02:58:00,47.8,39.0,29.99,SW,222,3.7,8.9,71,0.00,,,0.00,WUHU21623XXSP,2013-01-12 07:58:00,
2013-01-12 03:03:00,48.0,39.2,29.99,SW,229,6.3,15.0,71,0.00,,,0.00,WUHU21623XXSP,2013-01-12 08:03:00,
2013-01-12 03:08:00,48.4,39.6,29.99,SW,225,5.4,15.0,71,0.00,,,0.00,WUHU21623XXSP,2013-01-12 08:08:00,
2013-01-12 03:13:00,48.4,39.6,30.00,SSW,212,3.3,11.0,71,0.00,,,0.00,WUHU21623XXSP,2013-01-12 08:13:00,
2013-01-12 03:18:00,48.4,39.6,29.99,SSW,211,5.1,11.0,71,0.00,,,0.00,WUHU21623XXSP,2013-01-12 08:18:00,
2013-01-12 03:23:00,48.2,39.4,29.99,SSW,202,2.5,11.0,71,0.00,,,0.00,WUHU21623XXSP,2013-01-12 08:23:00,
2013-01-12 03:28:00,48.2,39.4,29.99,SW,225,2.7,7.2,71,0.00,,,0.00,WUHU21623XXSP,2013-01-12 08:28:00,
2013-01-12 03:33:00,48.0,39.2,29.99,SW,233,4.6,7.6,71,0.00,,,0.00,WUHU21623XXSP,2013-01-12 08:33:00,
2013-01-12 03:38:00,48.2,39.4,30.00,SW,229,3.9,7.6,71,0.00,,,0.00,WUHU21623XXSP,2013-01-12 08:38:00,
2013-01-12 03:43:00,48.4,39.6,29.99,WSW,247,4.7,8.1,71,0.00,,,0.00,WUHU21623XXSP,2013-01-12 08:43:00,
2013-01-12 03:48:00,48.6,39.8,29.99,SW,217,4.7,10.3,71,0.00,,,0.00,WUHU21623XXSP,2013-01-12 08:48:00,
2013-01-12 03:54:00,48.6,39.8,29.99,SW,228,4.6,10.3,71,0.00,,,0.00,WUHU21623XXSP,2013-01-12 08:54:00,
2013-01-12 03:59:00,48.7,39.9,29.99,SW,223,4.4,8.7,71,0.00,,,0.00,WUHU21623XXSP,2013-01-12 08:59:00,
2013-01-12 04:04:00,48.9,40.1,29.98,SSW,202,4.3,14.5,71,0.00,,,0.00,WUHU21623XXSP,2013-01-12 09:04:00,
2013-01-12 04:09:00,49.1,40.3,29.98,SW,226,5.7,14.5,71,0.00,,,0.00,WUHU21623XXSP,2013-01-12 09:09:00,
2013-01-12 04:14:00,49.3,40.5,29.98,SW,225,9.2,13.2,71,0.00,,,0.00,WUHU21623XXSP,2013-01-12 09:14:00,
2013-01-12 04:19:00,49.5,40.7,29.99,SW,225,8.7,11.9,71,0.00,,,0.00,WUHU21623XXSP,2013-01-12 09:19:00,
2013-01-12 04:24:00,49.6,40.8,29.99,WSW,237,7.2,11.9,71,0.00,,,0.00,WUHU21623XXSP,2013-01-12 09:24:00,
2013-01-12 04:29:00,49.6,40.8,30.00,WSW,247,7.4,11.6,71,0.00,,,0.00,WUHU21623XXSP,2013-01-12 09:29:00,
2013-01-12 04:34:00,49.6,40.8,30.00,SSW,202,9.6,11.6,71,0.00,,,0.00,WUHU21623XXSP,2013-01-12 09:34:00,
2013-01-12 04:39:00,49.8,40.9,30.00,SW,224,6.7,13.0,71,0.00,,,0.00,WUHU21623XXSP,2013-01-12 09:39:00,
2013-01-12 04:44:00,49.6,40.8,30.00,WSW,247,5.6,13.0,71,0.00,,,0.00,WUHU21623XXSP,2013-01-12 09:44:00,
2013-01-12 04:49:00,49.5,40.9,30.00,WSW,247,8.9,11.9,72,0.00,,,0.00,WUHU21623XXSP,2013-01-12 09:49:00,
2013-01-12 04:54:00,49.6,41.0,30.00,SW,223,5.0,11.9,72,0.00,,,0.00,WUHU21623XXSP,2013-01-12 09:54:00,
2013-01-12 04:59:00,49.5,40.9,30.00,SW,225,5.4,10.1,72,0.00,,,0.00,WUHU21623XXSP,2013-01-12 09:59:00,
2013-01-12 05:04:00,49.3,40.7,30.00,WSW,241,5.3,9.8,72,0.00,,,0.00,WUHU21623XXSP,2013-01-12 10:04:00,
2013-01-12 05:09:00,49.3,40.7,29.99,SW,235,5.1,10.1,72,0.00,,,0.00,WUHU21623XXSP,2013-01-12 10:09:00,
2013-01-12 05:15:00,49.3,40.7,29.99,WSW,247,4.7,10.1,72,0.00,,,0.00,WUHU21623XXSP,2013-01-12 10:15:00,
2013-01-12 05:20:00,49.3,40.7,30.00,WSW,247,7.2,8.1,72,0.00,,,0.00,WUHU21623XXSP,2013-01-12 10:20:00,
2013-01-12 05:25:00,49.3,40.7,29.99,SW,225,6.9,7.6,72,0.00,,,0.00,WUHU21623XXSP,2013-01-12 10:25:00,
2013-01-12 05:30:00,49.1,40.6,29.99,SW,225,6.3,7.6,72,0.00,,,0.00,WUHU21623XXSP,2013-01-12 10:30:00,
2013-01-12 05:35:00,49.1,40.6,29.99,SSW,202,4.9,7.4,72,0.00,,,0.00,WUHU21623XXSP,2013-01-12 10:35:00,
2013-01-12 05:40:00,49.3,40.7,29.99,WSW,247,6.3,7.6,72,0.00,,,0.00,WUHU21623XXSP,2013-01-12 10:40:00,
2013-01-12 05:45:00,49.3,40.7,29.99,SW,225,4.7,7.6,72,0.00,,,0.00,WUHU21623XXSP,2013-01-12 10:45:00,
2013-01-12 05:50:00,49.3,40.7,29.98,WSW,247,5.4,7.6,72,0.00,,,0.00,WUHU21623XXSP,2013-01-12 10:50:00,
2013-01-12 05:55:00,49.3,40.7,29.99,West,270,4.5,7.8,72,0.00,,,0.00,WUHU21623XXSP,2013-01-12 10:55:00,
2013-01-12 06:00:00,49.3,40.7,29.99,SSW,202,5.1,7.8,72,0.00,,,0.00,WUHU21623XXSP,2013-01-12 11:00:00,
2013-01-12 06:05:00,49.3,40.7,30.00,SW,225,5.0,7.8,72,0.00,,,0.00,WUHU21623XXSP,2013-01-12 11:05:00,
2013-01-12 06:10:00,49.1,40.6,30.00,WSW,247,3.8,7.8,72,0.00,,,0.00,WUHU21623XXSP,2013-01-12 11:10:00,
2013-01-12 06:15:00,49.3,40.7,30.00,WSW,240,3.3,6.3,72,0.00,,,0.00,WUHU21623XXSP,2013-01-12 11:15:00,
2013-01-12 06:20:00,49.3,40.7,30.00,SW,232,2.6,6.0,72,0.00,,,0.00,WUHU21623XXSP,2013-01-12 11:20:00,
2013-01-12 06:25:00,49.3,40.7,30.00,SW,225,2.9,6.3,72,0.00,,,0.00,WUHU21623XXSP,2013-01-12 11:25:00,
2013-01-12 06:30:00,49.3,40.7,30.00,SW,225,5.4,6.3,72,0.00,,,0.00,WUHU21623XXSP,2013-01-12 11:30:00,
2013-01-12 06:35:00,49.3,40.7,30.01,WSW,247,2.0,5.4,72,0.00,,,0.00,WUHU21623XXSP,2013-01-12 11:35:00,
2013-01-12 06:40:00,49.3,40.7,30.01,WSW,237,3.2,5.1,72,0.00,,,0.00,WUHU21623XXSP,2013-01-12 11:40:00,
2013-01-12 06:45:00,49.6,41.0,30.01,SW,225,4.7,7.2,72,0.00,,,0.00,WUHU21623XXSP,2013-01-12 11:45:00,
2013-01-12 06:50:00,49.8,41.2,30.01,SW,225,3.1,7.2,72,0.00,,,0.00,WUHU21623XXSP,2013-01-12 11:50:00,
2013-01-12 06:55:00,49.8,41.2,30.01,SW,230,2.9,6.9,72,0.00,,,0.00,WUHU21623XXSP,2013-01-12 11:55:00,
2013-01-12 07:00:00,49.8,41.2,30.02,SW,225,5.4,6.7,72,0.00,,,0.00,WUHU21623XXSP,2013-01-12 12:00:00,
2013-01-12 07:05:00,50.0,41.4,30.02,SW,225,4.4,6.7,72,0.00,,,0.00,WUHU21623XXSP,2013-01-12 12:05:00,
2013-01-12 07:10:00,50.0,41.4,30.02,SW,225,3.0,6.3,72,0.00,,,0.00,WUHU21623XXSP,2013-01-12 12:10:00,
2013-01-12 07:15:00,49.8,41.2,30.02,SW,225,5.4,8.1,72,0.00,,,0.00,WUHU21623XXSP,2013-01-12 12:15:00,
2013-01-12 07:20:00,50.0,41.4,30.02,SW,233,4.3,8.1,72,0.00,,,0.00,WUHU21623XXSP,2013-01-12 12:20:00,
2013-01-12 07:25:00,50.2,41.6,30.02,SW,218,5.3,8.9,72,0.00,,,0.00,WUHU21623XXSP,2013-01-12 12:25:00,
2013-01-12 07:30:00,50.2,41.6,30.02,SW,225,8.5,12.1,72,0.00,,,0.00,WUHU21623XXSP,2013-01-12 12:30:00,
2013-01-12 07:35:00,50.4,41.8,30.02,SSW,202,6.3,12.1,72,0.00,,,0.00,WUHU21623XXSP,2013-01-12 12:35:00,
2013-01-12 07:40:00,50.4,41.8,30.02,SW,226,7.8,12.8,72,0.00,,,0.00,WUHU21623XXSP,2013-01-12 12:40:00,
2013-01-12 07:45:00,50.5,41.9,30.02,SW,225,10.3,12.8,72,0.00,,,0.00,WUHU21623XXSP,2013-01-12 12:45:00,
2013-01-12 07:50:00,50.5,41.9,30.02,SSW,202,6.9,10.3,72,0.00,,,0.00,WUHU21623XXSP,2013-01-12 12:50:00,
2013-01-12 07:55:00,50.4,41.8,30.01,South,180,8.1,9.4,72,0.00,,,0.00,WUHU21623XXSP,2013-01-12 12:55:00,
2013-01-12 08:00:00,50.5,41.9,30.01,SW,214,5.5,13.2,72,0.00,,,0.00,WUHU21623XXSP,2013-01-12 13:00:00,
2013-01-12 08:05:00,50.5,41.9,30.02,SW,226,6.6,13.2,72,0.00,,,0.00,WUHU21623XXSP,2013-01-12 13:05:00,
2013-01-12 08:10:00,50.5,41.9,30.01,SW,225,8.3,12.1,72,0.00,,,0.00,WUHU21623XXSP,2013-01-12 13:10:00,
2013-01-12 08:15:00,50.5,41.9,30.02,WSW,247,8.5,11.0,72,0.00,,,0.00,WUHU21623XXSP,2013-01-12 13:15:00,
2013-01-12 08:20:00,50.7,42.1,30.01,SW,216,5.1,13.2,72,0.00,,,0.00,WUHU21623XXSP,2013-01-12 13:20:00,
2013-01-12 08:25:00,50.7,42.1,30.02,SW,225,6.1,13.2,72,0.00,,,0.00,WUHU21623XXSP,2013-01-12 13:25:00,
2013-01-12 08:30:00,50.7,42.1,30.01,SSW,202,6.0,10.1,72,0.00,,,0.00,WUHU21623XXSP,2013-01-12 13:30:00,
2013-01-12 08:35:00,50.5,41.9,30.02,SW,231,5.2,10.1,72,0.00,,,0.00,WUHU21623XXSP,2013-01-12 13:35:00,
2013-01-12 08:40:00,50.5,41.9,30.01,SW,218,5.0,8.9,72,0.00,,,0.00,WUHU21623XXSP,2013-01-12 13:40:00,
2013-01-12 08:45:00,50.7,42.1,30.02,WSW,247,6.7,9.4,72,0.00,,,0.00,WUHU21623XXSP,2013-01-12 13:45:00,
2013-01-12 08:50:00,50.7,42.1,30.02,West,270,5.6,9.4,72,0.00,,,0.00,WUHU21623XXSP,2013-01-12 13:50:00,
2013-01-12 08:55:00,50.7,42.1,30.02,SW,227,4.7,12.8,72,0.00,,,0.00,WUHU21623XXSP,2013-01-12 13:55:00,
2013-01-12 09:00:00,50.7,42.1,30.02,SW,225,4.3,12.8,72,0.00,,,0.00,WUHU21623XXSP,2013-01-12 14:00:00,
2013-01-12 09:05:00,51.1,42.5,30.02,SW,231,5.6,10.7,72,0.00,,,0.00,WUHU21623XXSP,2013-01-12 14:05:00,
2013-01-12 09:10:00,51.3,42.7,30.02,SW,225,8.3,10.7,72,0.00,,,0.00,WUHU21623XXSP,2013-01-12 14:10:00,
2013-01-12 09:15:00,51.4,42.8,30.02,SW,227,6.4,12.8,72,0.00,,,0.00,WUHU21623XXSP,2013-01-12 14:15:00,
2013-01-12 09:20:00,51.6,43.0,30.03,SW,230,4.6,12.8,72,0.00,,,0.00,WUHU21623XXSP,2013-01-12 14:20:00,
2013-01-12 09:25:00,51.6,43.0,30.03,SW,229,4.8,10.1,72,0.00,,,0.00,WUHU21623XXSP,2013-01-12 14:25:00,
2013-01-12 09:31:00,51.6,43.0,30.03,SW,234,5.5,10.1,72,0.00,,,0.00,WUHU21623XXSP,2013-01-12 14:31:00,
2013-01-12 09:36:00,51.6,43.0,30.03,SW,224,5.9,11.0,72,0.00,,,0.00,WUHU21623XXSP,2013-01-12 14:36:00,
2013-01-12 09:41:00,51.6,43.0,30.03,WSW,247,8.3,11.0,72,0.00,,,0.00,WUHU21623XXSP,2013-01-12 14:41:00,
2013-01-12 09:46:00,51.6,43.0,30.03,SSW,196,7.4,12.1,72,0.00,,,0.00,WUHU21623XXSP,2013-01-12 14:46:00,
2013-01-12 09:51:00,51.6,43.0,30.03,SW,233,4.4,12.1,72,0.00,,,0.00,WUHU21623XXSP,2013-01-12 14:51:00,
2013-01-12 09:56:00,51.6,43.0,30.04,WSW,242,5.5,14.5,72,0.00,,,0.00,WUHU21623XXSP,2013-01-12 14:56:00,
2013-01-12 10:01:00,51.6,43.0,30.04,WSW,240,7.0,14.5,72,0.00,,,0.00,WUHU21623XXSP,2013-01-12 15:01:00,
2013-01-12 10:06:00,51.8,43.2,30.04,SW,225,10.1,12.8,72,0.00,,,0.00,WUHU21623XXSP,2013-01-12 15:06:00,
2013-01-12 10:11:00,52.0,43.4,30.04,WSW,247,6.7,14.5,72,0.00,,,0.00,WUHU21623XXSP,2013-01-12 15:11:00,
2013-01-12 10:16:00,52.0,43.4,30.04,SW,231,3.8,14.5,72,0.00,,,0.00,WUHU21623XXSP,2013-01-12 15:16:00,
2013-01-12 10:21:00,52.3,43.6,30.04,SW,233,3.9,9.2,72,0.00,,,0.00,WUHU21623XXSP,2013-01-12 15:21:00,
2013-01-12 10:26:00,52.5,43.8,30.04,SW,225,6.3,9.6,72,0.00,,,0.00,WUHU21623XXSP,2013-01-12 15:26:00,
2013-01-12 10:33:00,52.9,44.2,30.04,SW,218,4.2,9.6,72,0.00,,,0.00,WUHU21623XXSP,2013-01-12 15:33:00,
2013-01-12 10:38:00,53.2,44.5,30.03,SW,225,7.8,9.8,72,0.00,,,0.00,WUHU21623XXSP,2013-01-12 15:38:00,
2013-01-12 10:43:00,53.4,44.7,30.04,SW,223,5.1,12.1,72,0.00,,,0.00,WUHU21623XXSP,2013-01-12 15:43:00,
2013-01-12 10:48:00,53.4,44.7,30.03,SW,225,3.8,12.1,72,0.00,,,0.00,WUHU21623XXSP,2013-01-12 15:48:00,
2013-01-12 10:53:00,53.4,44.7,30.03,WSW,247,4.3,8.9,72,0.00,,,0.00,WUHU21623XXSP,2013-01-12 15:53:00,
2013-01-12 10:58:00,53.2,44.5,30.04,SW,219,4.0,6.7,72,0.00,,,0.00,WUHU21623XXSP,2013-01-12 15:58:00,
2013-01-12 11:03:00,53.4,44.4,30.04,SW,215,4.8,6.3,71,0.00,,,0.00,WUHU21623XXSP,2013-01-12 16:03:00,
2013-01-12 11:08:00,53.8,45.1,30.03,SW,225,6.0,6.3,72,0.00,,,0.00,WUHU21623XXSP,2013-01-12 16:08:00,
2013-01-12 11:13:00,54.3,45.6,30.04,WSW,247,2.2,6.9,72,0.00,,,0.00,WUHU21623XXSP,2013-01-12 16:13:00,
2013-01-12 11:18:00,55.0,46.0,30.04,SW,216,5.1,9.6,71,0.00,,,0.00,WUHU21623XXSP,2013-01-12 16:18:00,
2013-01-12 11:23:00,55.0,46.0,30.03,SSW,209,4.8,12.1,71,0.00,,,0.00,WUHU21623XXSP,2013-01-12 16:23:00,
2013-01-12 11:28:00,55.0,46.0,30.03,SW,225,7.6,12.1,71,0.00,,,0.00,WUHU21623XXSP,2013-01-12 16:28:00,
2013-01-12 11:33:00,55.2,46.1,30.03,SW,219,6.4,10.3,71,0.00,,,0.00,WUHU21623XXSP,2013-01-12 16:33:00,
2013-01-12 11:38:00,55.2,45.9,30.03,WSW,247,4.9,10.3,70,0.00,,,0.00,WUHU21623XXSP,2013-01-12 16:38:00,
2013-01-12 11:43:00,54.9,45.6,30.03,SW,234,5.1,8.7,70,0.00,,,0.00,WUHU21623XXSP,2013-01-12 16:43:00,
2013-01-12 11:48:00,54.7,45.4,30.02,SW,217,3.9,8.7,70,0.00,,,0.00,WUHU21623XXSP,2013-01-12 16:48:00,
2013-01-12 11:53:00,54.7,45.4,30.02,SW,225,4.0,7.8,70,0.00,,,0.00,WUHU21623XXSP,2013-01-12 16:53:00,
2013-01-12 11:58:00,54.3,45.0,30.02,SW,225,5.8,8.5,70,0.00,,,0.00,WUHU21623XXSP,2013-01-12 16:58:00,
2013-01-12 12:03:00,54.1,44.8,30.01,SW,225,5.6,8.5,70,0.00,,,0.00,WUHU21623XXSP,2013-01-12 17:03:00,
2013-01-12 12:08:00,54.3,45.0,30.00,WSW,247,3.1,7.2,70,0.00,,,0.00,WUHU21623XXSP,2013-01-12 17:08:00,
2013-01-12 12:13:00,54.7,45.4,30.01,SW,225,4.0,6.7,70,0.00,,,0.00,WUHU21623XXSP,2013-01-12 17:13:00,
2013-01-12 12:18:00,55.0,45.7,30.01,SW,221,3.6,6.7,70,0.00,,,0.00,WUHU21623XXSP,2013-01-12 17:18:00,
2013-01-12 12:23:00,55.2,45.9,30.01,SW,235,4.3,8.1,70,0.00,,,0.00,WUHU21623XXSP,2013-01-12 17:23:00,
2013-01-12 12:28:00,55.2,45.9,30.00,SW,227,4.9,8.1,70,0.00,,,0.00,WUHU21623XXSP,2013-01-12 17:28:00,
2013-01-12 12:33:00,55.2,45.6,30.00,WSW,247,5.1,8.1,70,0.00,,,0.00,WUHU21623XXSP,2013-01-12 17:33:00,
2013-01-12 12:38:00,55.2,45.6,30.01,SW,228,5.2,10.7,70,0.00,,,0.00,WUHU21623XXSP,2013-01-12 17:38:00,
2013-01-12 12:43:00,55.6,45.9,30.01,WSW,247,6.5,10.7,70,0.00,,,0.00,WUHU21623XXSP,2013-01-12 17:43:00,
2013-01-12 12:48:00,55.8,45.8,30.01,SW,225,4.5,13.4,69,0.00,,,0.00,WUHU21623XXSP,2013-01-12 17:48:00,
2013-01-12 12:53:00,55.8,45.5,30.01,SW,215,5.7,13.4,68,0.00,,,0.00,WUHU21623XXSP,2013-01-12 17:53:00,
2013-01-12 12:58:00,55.6,45.3,30.00,SSW,213,5.0,8.3,68,0.00,,,0.00,WUHU21623XXSP,2013-01-12 17:58:00,
2013-01-12 13:03:00,55.8,45.5,30.01,WSW,244,3.5,6.9,68,0.00,,,0.00,WUHU21623XXSP,2013-01-12 18:03:00,
2013-01-12 13:09:00,56.1,45.5,30.00,SW,234,3.8,7.4,67,0.00,,,0.00,WUHU21623XXSP,2013-01-12 18:09:00,
2013-01-12 13:14:00,56.5,45.6,30.00,WSW,247,4.7,8.7,66,0.00,,,0.00,WUHU21623XXSP,2013-01-12 18:14:00,
2013-01-12 13:19:00,56.8,45.5,29.99,WSW,247,2.2,8.7,66,0.00,,,0.00,WUHU21623XXSP,2013-01-12 18:19:00,
2013-01-12 13:24:00,56.8,45.5,30.00,WSW,247,0.0,7.4,66,0.00,,,0.00,WUHU21623XXSP,2013-01-12 18:24:00,
2013-01-12 13:29:00,57.0,45.7,30.00,SSW,202,2.9,4.0,66,0.00,,,0.00,WUHU21623XXSP,2013-01-12 18:29:00,
2013-01-12 13:34:00,57.4,45.8,30.00,SW,225,3.1,5.4,65,0.00,,,0.00,WUHU21623XXSP,2013-01-12 18:34:00,
2013-01-12 13:39:00,57.9,45.9,30.00,SW,229,3.4,6.9,64,0.00,,,0.00,WUHU21623XXSP,2013-01-12 18:39:00,
2013-01-12 13:44:00,58.3,45.6,30.00,SW,229,3.9,6.9,62,0.00,,,0.00,WUHU21623XXSP,2013-01-12 18:44:00,
2013-01-12 13:49:00,58.5,45.8,30.00,SSW,202,4.7,6.7,62,0.00,,,0.00,WUHU21623XXSP,2013-01-12 18:49:00,
2013-01-12 13:54:00,58.3,45.3,30.00,SW,225,3.2,7.2,62,0.00,,,0.00,WUHU21623XXSP,2013-01-12 18:54:00,
2013-01-12 13:59:00,59.0,46.0,30.00,WSW,247,2.9,7.2,62,0.00,,,0.00,WUHU21623XXSP,2013-01-12 18:59:00,
2013-01-12 14:04:00,61.7,47.1,30.00,SSW,202,2.6,7.8,58,0.00,,,0.00,WUHU21623XXSP,2013-01-12 19:04:00,
2013-01-12 14:09:00,62.6,47.2,30.00,SW,225,2.6,7.8,57,0.00,,,0.00,WUHU21623XXSP,2013-01-12 19:09:00,
2013-01-12 14:14:00,62.8,46.6,30.01,SW,217,3.0,8.1,55,0.00,,,0.00,WUHU21623XXSP,2013-01-12 19:14:00,
2013-01-12 14:19:00,63.3,46.7,30.01,WSW,242,4.4,8.3,54,0.00,,,0.00,WUHU21623XXSP,2013-01-12 19:19:00,
2013-01-12 14:24:00,63.9,46.8,30.01,WSW,247,3.3,8.5,54,0.00,,,0.00,WUHU21623XXSP,2013-01-12 19:24:00,
2013-01-12 14:29:00,64.6,46.6,30.01,SW,232,4.4,8.5,52,0.00,,,0.00,WUHU21623XXSP,2013-01-12 19:29:00,
2013-01-12 14:34:00,63.3,45.8,30.01,SSW,202,3.4,7.6,53,0.00,,,0.00,WUHU21623XXSP,2013-01-12 19:34:00,
2013-01-12 14:39:00,61.9,45.3,30.01,SSW,202,4.5,6.5,54,0.00,,,0.00,WUHU21623XXSP,2013-01-12 19:39:00,
2013-01-12 14:44:00,61.0,44.9,30.02,SW,225,5.4,8.9,55,0.00,,,0.00,WUHU21623XXSP,2013-01-12 19:44:00,
2013-01-12 14:49:00,59.9,44.3,30.01,WSW,247,9.4,11.0,56,0.00,,,0.00,WUHU21623XXSP,2013-01-12 19:49:00,
2013-01-12 14:54:00,59.0,43.8,30.02,SW,225,5.6,11.0,57,0.00,,,0.00,WUHU21623XXSP,2013-01-12 19:54:00,
2013-01-12 14:59:00,58.8,44.0,30.02,SW,222,4.1,7.8,58,0.00,,,0.00,WUHU21623XXSP,2013-01-12 19:59:00,
2013-01-12 15:04:00,58.3,43.5,30.02,SSW,202,0.0,5.4,58,0.00,,,0.00,WUHU21623XXSP,2013-01-12 20:04:00,
2013-01-12 15:09:00,57.9,43.9,30.02,SW,225,3.3,5.6,59,0.00,,,0.00,WUHU21623XXSP,2013-01-12 20:09:00,
2013-01-12 15:14:00,57.4,43.4,30.03,WSW,247,3.0,5.6,59,0.00,,,0.00,WUHU21623XXSP,2013-01-12 20:14:00,
2013-01-12 15:19:00,57.0,43.0,30.03,SW,225,2.6,5.8,59,0.00,,,0.00,WUHU21623XXSP,2013-01-12 20:19:00,
2013-01-12 15:24:00,56.5,42.9,30.03,SSW,202,2.4,6.0,60,0.00,,,0.00,WUHU21623XXSP,2013-01-12 20:24:00,
2013-01-12 15:29:00,56.1,42.9,30.03,SW,225,0.0,6.0,61,0.00,,,0.00,WUHU21623XXSP,2013-01-12 20:29:00,
2013-01-12 15:34:00,55.8,42.6,30.02,SW,225,0.0,2.9,61,0.00,,,0.00,WUHU21623XXSP,2013-01-12 20:34:00,
2013-01-12 15:39:00,55.6,42.7,30.03,SW,225,0.0,0.0,62,0.00,,,0.00,WUHU21623XXSP,2013-01-12 20:39:00,
2013-01-12 15:44:00,55.2,42.4,30.03,SW,225,4.6,5.1,62,0.00,,,0.00,WUHU21623XXSP,2013-01-12 20:44:00,
2013-01-12 15:49:00,55.0,42.2,30.03,SW,225,0.0,5.1,62,0.00,,,0.00,WUHU21623XXSP,2013-01-12 20:49:00,
2013-01-12 15:54:00,54.7,42.2,30.03,SW,225,0.0,3.4,62,0.00,,,0.00,WUHU21623XXSP,2013-01-12 20:54:00,
2013-01-12 15:59:00,54.7,42.6,30.03,SW,225,0.0,2.9,63,0.00,,,0.00,WUHU21623XXSP,2013-01-12 20:59:00,
2013-01-12 16:04:00,54.5,42.4,30.03,SW,225,0.0,2.9,63,0.00,,,0.00,WUHU21623XXSP,2013-01-12 21:04:00,
2013-01-12 16:09:00,54.3,42.2,30.03,SW,225,2.5,2.9,63,0.00,,,0.00,WUHU21623XXSP,2013-01-12 21:09:00,
2013-01-12 16:14:00,54.3,42.2,30.03,SW,225,0.0,2.9,63,0.00,,,0.00,WUHU21623XXSP,2013-01-12 21:14:00,
2013-01-12 16:19:00,54.1,42.0,30.03,SW,225,0.0,0.0,63,0.00,,,0.00,WUHU21623XXSP,2013-01-12 21:19:00,
2013-01-12 16:24:00,54.0,42.2,30.03,SW,225,0.0,0.0,64,0.00,,,0.00,WUHU21623XXSP,2013-01-12 21:24:00,
2013-01-12 16:29:00,53.6,41.8,30.04,SW,225,0.0,0.0,64,0.00,,,0.00,WUHU21623XXSP,2013-01-12 21:29:00,
2013-01-12 16:34:00,53.2,41.5,30.04,SW,225,0.0,0.0,64,0.00,,,0.00,WUHU21623XXSP,2013-01-12 21:34:00,
2013-01-12 16:39:00,52.9,41.5,30.04,SW,225,0.0,0.0,65,0.00,,,0.00,WUHU21623XXSP,2013-01-12 21:39:00,
2013-01-12 16:44:00,52.5,41.1,30.04,SW,225,0.0,0.0,65,0.00,,,0.00,WUHU21623XXSP,2013-01-12 21:44:00,
2013-01-12 16:49:00,52.3,40.9,30.03,SW,225,0.0,0.0,65,0.00,,,0.00,WUHU21623XXSP,2013-01-12 21:49:00,
2013-01-12 16:54:00,52.0,41.0,30.03,SW,225,0.0,0.0,66,0.00,,,0.00,WUHU21623XXSP,2013-01-12 21:54:00,
2013-01-12 16:59:00,51.8,41.1,30.03,SW,225,0.0,0.0,66,0.00,,,0.00,WUHU21623XXSP,2013-01-12 21:59:00,
2013-01-12 17:04:00,51.6,40.9,30.03,SW,225,0.0,0.0,66,0.00,,,0.00,WUHU21623XXSP,2013-01-12 22:04:00,
2013-01-12 17:09:00,51.4,40.7,30.04,SW,225,0.0,0.0,66,0.00,,,0.00,WUHU21623XXSP,2013-01-12 22:09:00,
2013-01-12 17:14:00,51.3,40.6,30.04,SW,225,0.0,0.0,66,0.00,,,0.00,WUHU21623XXSP,2013-01-12 22:14:00,
2013-01-12 17:19:00,51.1,40.7,30.04,SW,225,0.0,0.0,67,0.00,,,0.00,WUHU21623XXSP,2013-01-12 22:19:00,
2013-01-12 17:24:00,50.9,40.5,30.03,SW,225,0.0,0.0,67,0.00,,,0.00,WUHU21623XXSP,2013-01-12 22:24:00,
2013-01-12 17:29:00,50.7,40.3,30.03,SW,225,0.0,0.0,67,0.00,,,0.00,WUHU21623XXSP,2013-01-12 22:29:00,
2013-01-12 17:34:00,50.7,40.6,30.03,SW,225,0.0,0.0,68,0.00,,,0.00,WUHU21623XXSP,2013-01-12 22:34:00,
2013-01-12 17:40:00,50.7,40.6,30.03,SW,225,0.0,0.0,68,0.00,,,0.00,WUHU21623XXSP,2013-01-12 22:40:00,
2013-01-12 17:45:00,50.4,40.3,30.03,SW,225,0.0,0.0,68,0.00,,,0.00,WUHU21623XXSP,2013-01-12 22:45:00,
2013-01-12 17:50:00,50.0,40.0,30.03,SW,225,0.0,0.0,68,0.00,,,0.00,WUHU21623XXSP,2013-01-12 22:50:00,
2013-01-12 17:55:00,49.6,39.6,30.03,SW,225,0.0,0.0,68,0.00,,,0.00,WUHU21623XXSP,2013-01-12 22:55:00,
2013-01-12 18:00:00,49.6,39.6,30.03,SW,225,0.0,0.0,68,0.00,,,0.00,WUHU21623XXSP,2013-01-12 23:00:00,
2013-01-12 18:05:00,49.3,39.6,30.03,SW,225,0.0,0.0,69,0.00,,,0.00,WUHU21623XXSP,2013-01-12 23:05:00,
2013-01-12 18:10:00,49.1,39.4,30.03,SW,225,0.0,1.8,69,0.00,,,0.00,WUHU21623XXSP,2013-01-12 23:10:00,
2013-01-12 18:15:00,48.9,39.2,30.02,SW,225,0.0,1.8,69,0.00,,,0.00,WUHU21623XXSP,2013-01-12 23:15:00,
2013-01-12 18:20:00,48.7,39.0,30.02,SW,225,0.0,0.7,69,0.00,,,0.00,WUHU21623XXSP,2013-01-12 23:20:00,
2013-01-12 18:25:00,48.7,39.0,30.02,SSW,202,0.0,0.0,69,0.00,,,0.00,WUHU21623XXSP,2013-01-12 23:25:00,
2013-01-12 18:30:00,48.9,39.5,30.02,South,180,1.6,3.4,70,0.00,,,0.00,WUHU21623XXSP,2013-01-12 23:30:00,
2013-01-12 18:35:00,49.1,39.7,30.01,SSE,157,3.1,3.8,70,0.00,,,0.00,WUHU21623XXSP,2013-01-12 23:35:00,
2013-01-12 18:40:00,49.3,39.9,30.02,South,180,0.0,3.8,70,0.00,,,0.00,WUHU21623XXSP,2013-01-12 23:40:00,
2013-01-12 18:45:00,49.3,39.9,30.01,SSW,202,0.0,4.3,70,0.00,,,0.00,WUHU21623XXSP,2013-01-12 23:45:00,
2013-01-12 18:50:00,49.3,39.9,30.01,SW,225,0.0,4.3,70,0.00,,,0.00,WUHU21623XXSP,2013-01-12 23:50:00,
2013-01-12 18:55:00,49.6,40.2,30.01,SW,225,0.0,0.0,70,0.00,,,0.00,WUHU21623XXSP,2013-01-12 23:55:00,
2013-01-12 19:00:00,49.6,40.2,30.01,SW,225,0.0,0.0,70,0.00,,,0.00,WUHU21623XXSP,2013-01-13 00:00:00,
2013-01-12 19:05:00,49.6,40.2,30.02,SW,225,0.0,0.0,70,0.00,,,0.00,WUHU21623XXSP,2013-01-13 00:05:00,
2013-01-12 19:10:00,49.6,40.2,30.01,ESE,112,0.0,1.6,70,0.00,,,0.00,WUHU21623XXSP,2013-01-13 00:10:00,
2013-01-12 19:15:00,49.8,40.7,30.01,ESE,112,0.0,1.6,70,0.00,,,0.00,WUHU21623XXSP,2013-01-13 00:15:00,
2013-01-12 19:20:00,50.2,41.0,30.02,ESE,112,0.0,3.1,70,0.00,,,0.00,WUHU21623XXSP,2013-01-13 00:20:00,
2013-01-12 19:25:00,50.4,41.2,30.01,SE,135,0.0,3.8,70,0.00,,,0.00,WUHU21623XXSP,2013-01-13 00:25:00,
2013-01-12 19:30:00,50.5,41.3,30.01,SSE,157,5.8,5.8,70,0.00,,,0.00,WUHU21623XXSP,2013-01-13 00:30:00,
2013-01-12 19:35:00,50.9,41.7,30.01,South,180,3.0,5.8,70,0.00,,,0.00,WUHU21623XXSP,2013-01-13 00:35:00,
2013-01-12 19:40:00,51.3,41.8,30.01,South,180,3.0,4.9,70,0.00,,,0.00,WUHU21623XXSP,2013-01-13 00:40:00,
2013-01-12 19:45:00,51.6,42.1,30.01,South,180,2.2,4.9,70,0.00,,,0.00,WUHU21623XXSP,2013-01-13 00:45:00,
2013-01-12 19:50:00,51.6,42.1,30.01,SSW,202,2.6,4.9,70,0.00,,,0.00,WUHU21623XXSP,2013-01-13 00:50:00,
2013-01-12 19:55:00,52.0,42.5,30.01,SSW,202,2.9,4.9,70,0.00,,,0.00,WUHU21623XXSP,2013-01-13 00:55:00,
2013-01-12 20:00:00,52.0,42.2,30.01,South,180,2.3,4.9,69,0.00,,,0.00,WUHU21623XXSP,2013-01-13 01:00:00,
2013-01-12 20:05:00,52.0,42.2,30.01,SSW,202,0.9,4.9,69,0.00,,,0.00,WUHU21623XXSP,2013-01-13 01:05:00,
2013-01-12 20:10:00,52.0,42.2,30.01,SSW,202,2.2,4.7,69,0.00,,,0.00,WUHU21623XXSP,2013-01-13 01:10:00,
2013-01-12 20:15:00,52.2,42.4,30.01,South,180,6.0,8.1,69,0.00,,,0.00,WUHU21623XXSP,2013-01-13 01:15:00,
2013-01-12 20:20:00,52.3,42.5,30.01,South,180,5.4,8.1,69,0.00,,,0.00,WUHU21623XXSP,2013-01-13 01:20:00,
2013-01-12 20:25:00,52.5,42.4,30.02,South,180,4.5,6.3,68,0.00,,,0.00,WUHU21623XXSP,2013-01-13 01:25:00,
2013-01-12 20:30:00,52.7,42.6,30.01,South,180,4.0,7.4,68,0.00,,,0.00,WUHU21623XXSP,2013-01-13 01:30:00,
2013-01-12 20:35:00,52.9,42.7,30.01,South,180,3.9,7.4,68,0.00,,,0.00,WUHU21623XXSP,2013-01-13 01:35:00,
2013-01-12 20:40:00,52.9,42.4,30.01,South,180,3.8,5.6,67,0.00,,,0.00,WUHU21623XXSP,2013-01-13 01:40:00,
2013-01-12 20:45:00,53.2,42.7,30.01,SSE,157,2.9,5.4,67,0.00,,,0.00,WUHU21623XXSP,2013-01-13 01:45:00,
2013-01-12 20:50:00,53.4,42.9,30.01,South,180,3.4,5.6,67,0.00,,,0.00,WUHU21623XXSP,2013-01-13 01:50:00,
2013-01-12 20:55:00,53.4,42.6,30.01,SW,225,0.0,5.6,66,0.00,,,0.00,WUHU21623XXSP,2013-01-13 01:55:00,
2013-01-12 21:00:00,53.4,42.6,30.01,SSW,202,0.0,5.4,66,0.00,,,0.00,WUHU21623XXSP,2013-01-13 02:00:00,
2013-01-12 21:05:00,53.4,42.6,30.01,SSW,202,1.1,4.0,66,0.00,,,0.00,WUHU21623XXSP,2013-01-13 02:05:00,
2013-01-12 21:10:00,53.4,42.6,30.01,SE,135,0.7,3.6,66,0.00,,,0.00,WUHU21623XXSP,2013-01-13 02:10:00,
2013-01-12 21:15:00,53.4,42.3,30.01,South,180,3.7,5.4,66,0.00,,,0.00,WUHU21623XXSP,2013-01-13 02:15:00,
2013-01-12 21:20:00,53.8,42.7,30.01,South,180,3.4,6.0,66,0.00,,,0.00,WUHU21623XXSP,2013-01-13 02:20:00,
2013-01-12 21:25:00,53.8,42.7,30.01,South,180,3.8,6.0,66,0.00,,,0.00,WUHU21623XXSP,2013-01-13 02:25:00,
2013-01-12 21:30:00,54.0,42.9,30.01,South,180,3.4,5.8,66,0.00,,,0.00,WUHU21623XXSP,2013-01-13 02:30:00,
2013-01-12 21:35:00,54.0,42.5,30.01,South,180,2.9,5.1,65,0.00,,,0.00,WUHU21623XXSP,2013-01-13 02:35:00,
2013-01-12 21:40:00,54.0,42.5,30.01,South,180,3.2,4.9,65,0.00,,,0.00,WUHU21623XXSP,2013-01-13 02:40:00,
2013-01-12 21:45:00,54.0,42.5,30.01,South,180,0.0,4.5,65,0.00,,,0.00,WUHU21623XXSP,2013-01-13 02:45:00,
2013-01-12 21:50:00,53.8,42.4,30.01,South,180,3.5,5.8,65,0.00,,,0.00,WUHU21623XXSP,2013-01-13 02:50:00,
2013-01-12 21:55:00,54.0,42.5,30.01,South,180,3.8,5.8,65,0.00,,,0.00,WUHU21623XXSP,2013-01-13 02:55:00,
2013-01-12 22:00:00,54.0,42.5,30.01,SSE,157,3.4,5.4,65,0.00,,,0.00,WUHU21623XXSP,2013-01-13 03:00:00,
2013-01-12 22:05:00,54.0,42.5,30.01,SW,216,3.2,3.8,65,0.00,,,0.00,WUHU21623XXSP,2013-01-13 03:05:00,
2013-01-12 22:10:00,54.0,42.5,30.01,SSW,195,2.6,3.8,65,0.00,,,0.00,WUHU21623XXSP,2013-01-13 03:10:00,
2013-01-12 22:15:00,54.0,42.5,30.01,South,180,0.0,3.6,65,0.00,,,0.00,WUHU21623XXSP,2013-01-13 03:15:00,
2013-01-12 22:20:00,54.0,42.5,30.01,SSE,157,0.0,2.7,65,0.00,,,0.00,WUHU21623XXSP,2013-01-13 03:20:00,
2013-01-12 22:25:00,53.8,42.4,30.00,SSE,157,0.0,2.7,65,0.00,,,0.00,WUHU21623XXSP,2013-01-13 03:25:00,
2013-01-12 22:31:00,53.8,42.4,30.00,SSE,157,0.0,0.0,65,0.00,,,0.00,WUHU21623XXSP,2013-01-13 03:31:00,
2013-01-12 22:36:00,53.8,42.4,30.00,WNW,292,3.4,3.4,65,0.00,,,0.00,WUHU21623XXSP,2013-01-13 03:36:00,
2013-01-12 22:41:00,54.0,42.5,29.99,South,180,4.3,4.3,65,0.00,,,0.00,WUHU21623XXSP,2013-01-13 03:41:00,
2013-01-12 22:46:00,54.1,42.6,29.99,South,180,0.0,4.3,65,0.00,,,0.00,WUHU21623XXSP,2013-01-13 03:46:00,
2013-01-12 22:51:00,54.0,42.2,29.98,South,180,2.9,2.9,64,0.00,,,0.00,WUHU21623XXSP,2013-01-13 03:51:00,
2013-01-12 22:56:00,53.8,42.0,29.98,ENE,67,0.0,3.1,64,0.00,,,0.00,WUHU21623XXSP,2013-01-13 03:56:00,
2013-01-12 23:01:00,53.8,42.0,29.98,SSE,157,0.9,3.1,64,0.00,,,0.00,WUHU21623XXSP,2013-01-13 04:01:00,
2013-01-12 23:06:00,53.6,41.8,29.98,South,180,0.0,2.0,64,0.00,,,0.00,WUHU21623XXSP,2013-01-13 04:06:00,
2013-01-12 23:11:00,53.4,41.6,29.98,South,180,0.0,2.0,64,0.00,,,0.00,WUHU21623XXSP,2013-01-13 04:11:00,
2013-01-12 23:16:00,53.4,41.6,29.98,South,180,0.0,0.0,64,0.00,,,0.00,WUHU21623XXSP,2013-01-13 04:16:00,
2013-01-12 23:21:00,53.4,41.6,29.98,South,180,0.0,0.0,64,0.00,,,0.00,WUHU21623XXSP,2013-01-13 04:21:00,
2013-01-12 23:26:00,53.2,41.5,29.97,ESE,112,0.0,0.0,64,0.00,,,0.00,WUHU21623XXSP,2013-01-13 04:26:00,
2013-01-12 23:31:00,52.9,41.5,29.97,SSE,157,3.4,3.4,65,0.00,,,0.00,WUHU21623XXSP,2013-01-13 04:31:00,
2013-01-12 23:36:00,52.9,41.5,29.97,South,180,0.0,3.4,65,0.00,,,0.00,WUHU21623XXSP,2013-01-13 04:36:00,
2013-01-12 23:41:00,52.5,41.1,29.97,South,180,0.0,1.6,65,0.00,,,0.00,WUHU21623XXSP,2013-01-13 04:41:00,
2013-01-12 23:46:00,52.2,40.8,29.97,South,180,0.0,0.0,65,0.00,,,0.00,WUHU21623XXSP,2013-01-13 04:46:00,
2013-01-12 23:51:00,51.8,40.8,29.97,SSE,157,4.7,4.7,66,0.00,,,0.00,WUHU21623XXSP,2013-01-13 04:51:00,
2013-01-12 23:56:00,51.6,40.6,29.97,SSE,157,0.0,4.7,66,0.00,,,0.00,WUHU21623XXSP,2013-01-13 04:56:00,